Terminal Aerodrome Forecast
Issued by NWS Wilmington, OH

Current Version | Previous Version | Text Only | Print | Product List | Glossary Off
Versions: 1 2 3 4 5 6 7 8 9 10 11 12 13 14 15 16 17 18 19 20 21

000
FTUS41 KILN 110540
TAFDAY
TAF
KDAY 110540Z 1106/1206 28006KT P6SM BKN025
     FM111000 22005KT P6SM SCT025 BKN250
     FM111600 18008KT P6SM BKN080 OVC150
     FM120300 21012KT P6SM SCT025 OVC090=

USA.gov is the U.S. government's official web portal to all federal, state and local government web resources and services.